Truckee-Tahoe, CA

11:08 PM PDT on September 20, 2014 (GMT -0700)
Carson | Change Station
CLOSE
Current Station
Airport
Location: Carson City,
Elevation: 4705 ft
Nearby Weather Stations

Elev 4705 ft 39.19 °N, 119.73 °W | Updated 13 minutes ago

Overcast
Overcast
66 °F
Feels Like 66 °F
N
4
Wind Variable Wind from West

Today
High -- | Low -- °F
--% Chance of Precip.
Yesterday
High -- | Low -- °F
Precip. -- in
6:46 AM 7:00 PM
Waning Crescent, 8% visible
Pressure 30.12 in
Visibility 10.0 miles
Clouds Overcast 11000 ft
Dew Point 41 °F
Humidity 40%
Rainfall 0.00 in
Snow Depth 1 in , 1 in , 0 in
UV 0 out of 12
Pollen 6.70 out of 12
Air Quality Not available.
Flu Activity Not available.
METAR KCXP 210555Z AUTO 28003KT 10SM OVC110 19/05 A3012 RMK AO2

More Conditions Fewer Conditions

Pressure 30.12 in
Visibility 10.0 miles
Clouds Overcast 11000 ft
Dew Point 41 °F
Humidity 40%
Rainfall 0.00 in
Snow Depth 1 in , 1 in , 0 in
UV 0 out of 12
Pollen 6.70 out of 12
Air Quality Not available.
Flu Activity Not available.
METAR KCXP 210555Z AUTO 28003KT 10SM OVC110 19/05 A3012 RMK AO2

More Conditions Fewer Conditions

10-Day Weather Forecast

Almanac

Astronomy

Sep. 20, 2014 Rise Set
Actual Time 6:46 AM PDT 7:00 PM PDT
Civil Twilight 6:19 AM PDT 7:27 PM PDT
Nautical Twilight 5:48 AM PDT 7:58 PM PDT
Astronomical Twilight 5:16 AM PDT 8:30 PM PDT
Moon 3:31 AM PDT (9/20) 5:06 PM PDT (9/20)
Length of Visible Light 13h 07m
Length of Day
12h 14m
Tomorrow will be 2m 33s shorter.
Waning Crescent, 8% of the Moon is Illuminated
Sep 21
Waning Crescent
Sep 24
New
Oct 1
First Quarter
Oct 8
Full
Oct 15
Last Quarter

Yesterday's Extremes

State Highs State Lows

Community

WunderPhotos

Upload Photos

1,755,098 photos uploaded!

Nearby

Snow Depth

Station Depth Elevation
Summit Meadow 1 in 9122 ft
Monitor Pass 1 in 8350 ft
Burnside Lake 0 in 8139 ft
Tahoe City Cross 0 in 6750 ft
Spratt Creek 1 in 6200 ft

Earthquake Activity

City Distance Mag. Time & Date
Livermore, California 142 miles 2.6 3:37 AM PDT
2014-09-19
Minimum magnitude displayed is 2.5.

Coastal Water Temperatures

Place Temperature
No Stations Reporting

Nearby Weather Stations